Main page
METAR-TAF:

METAR-TAF

Airports :

Jammu Airport

Jammu, India

latitude: 32-41-21N, longitude: 74-50-15E, elevation: 314 m

METAR: missing

Time: 12:10 (06:40 UTC)

Forecast

The report was made 3 hours and 10 minutes ago, at 03:30 UTC
Forecast valid from 30 at 06 UTC to 30 at 18 UTC
Wind 10 kt from the South/Southeast
Visibility: 6000 m
Few clouds at a height of 1000 ft
Scattered clouds at a height of 3000 ft
Broken clouds at a height of 9000 ft
rain
Becoming
from 30 at 12 UTC to 30 at 16 UTC
Wind 5 kt from the South/Southeast
Visibility: 5000 m
Few clouds at a height of 1000 ft
Scattered clouds at a height of 3000 ft
Few clouds at a height of 3000 ft, Cumulonimbus.
thunderstorm

TAF: VIJU 300330Z 3006/3018 16010KT 6000 RA FEW010 SCT030 BKN090 BECMG 3012/3016 15005KT 5000 TS FEW010 SCT030 FEW030CB BKN 090

Weather observations and forecasts of more than 4000 airports (METAR and TAF reports).

The available stations are represented by yellow and red dots on the map.

Hover mouse over dot to see the name of the station.

Then click to see weather observations and forecasts.

To change the map : click on the green buttons with a black cross to zoom in, on the green button with a dash to zoom out, or on the green arrows for adjacent maps.


METAR-TAF: